Time;durP1;ratioP1;P1;durP2;ratioP2;P2;SDS_P1;SDS_P2;PMS_P1;PMS_P2;Temp;Humidity;BMP_temperature;BMP_pressure;BME280_temperature;BME280_humidity;BME280_pressure;Samples;Min_cycle;Max_cycle;Signal;HPM_P1;HPM_P2
2023/01/25 00:02:03;;;;;;;16.13;8.35;;;18.40;66.60;;;;;;4495928;31;20136;-65
2023/01/25 00:04:30;;;;;;;15.43;9.15;;;18.40;66.60;;;;;;4497407;31;20249;-65
2023/01/25 00:06:56;;;;;;;15.02;7.90;;;18.40;66.60;;;;;;4494637;31;20140;-65
2023/01/25 00:09:23;;;;;;;15.48;8.75;;;18.40;66.60;;;;;;4497102;31;20152;-65
2023/01/25 00:11:49;;;;;;;13.45;8.25;;;18.40;66.60;;;;;;4482407;31;20238;-65
2023/01/25 00:14:15;;;;;;;17.60;8.70;;;18.40;66.60;;;;;;4482174;31;20116;-65
2023/01/25 00:16:41;;;;;;;15.80;8.55;;;18.30;66.60;;;;;;4497292;31;20176;-64
2023/01/25 00:19:09;;;;;;;14.05;7.82;;;18.30;66.50;;;;;;4469307;31;20140;-65
2023/01/25 00:21:35;;;;;;;12.52;8.07;;;18.30;66.50;;;;;;4470412;31;20148;-65
2023/01/25 00:24:02;;;;;;;15.75;8.55;;;18.30;66.60;;;;;;4470694;31;20203;-65
2023/01/25 00:26:32;;;;;;;15.63;7.88;;;18.30;66.60;;;;;;4496129;31;20149;-65
2023/01/25 00:28:58;;;;;;;14.30;8.43;;;18.30;66.50;;;;;;4495236;31;20259;-64
2023/01/25 00:31:33;;;;;;;13.93;8.43;;;18.30;66.50;;;;;;4457326;31;20131;-65
2023/01/25 00:34:25;;;;;;;14.25;8.32;;;18.20;66.40;;;;;;4498074;31;20125;-65
2023/01/25 00:37:02;;;;;;;14.93;7.43;;;18.20;66.40;;;;;;4474984;31;20140;-65
2023/01/25 00:39:28;;;;;;;16.08;8.45;;;18.20;66.50;;;;;;4486787;31;20442;-65
2023/01/25 00:41:54;;;;;;;14.20;7.95;;;18.20;66.60;;;;;;4496474;31;20168;-65
2023/01/25 00:44:22;;;;;;;14.40;7.88;;;18.20;66.50;;;;;;4494776;31;20316;-65
2023/01/25 00:46:47;;;;;;;14.55;8.32;;;18.20;67.40;;;;;;4495986;31;20264;-64
2023/01/25 00:49:22;;;;;;;15.57;7.60;;;18.20;66.60;;;;;;4468697;32;20769;-65
2023/01/25 00:51:48;;;;;;;10.85;6.78;;;18.20;66.50;;;;;;4496949;32;20757;-64
2023/01/25 00:54:14;;;;;;;12.57;7.20;;;18.10;67.30;;;;;;4470585;31;20290;-65
2023/01/25 00:56:40;;;;;;;12.23;6.70;;;18.10;66.40;;;;;;4505574;31;20135;-65
2023/01/25 00:59:06;;;;;;;12.15;7.10;;;18.10;66.50;;;;;;4506659;31;20261;-65
2023/01/25 01:01:34;;;;;;;12.85;7.18;;;18.10;66.50;;;;;;4481775;31;20355;-65
2023/01/25 01:03:59;;;;;;;12.43;7.43;;;18.10;66.50;;;;;;4491944;31;20121;-65
2023/01/25 01:06:25;;;;;;;12.52;7.50;;;18.10;66.50;;;;;;4494295;31;20116;-65
2023/01/25 01:08:51;;;;;;;10.95;6.68;;;18.00;66.40;;;;;;4492526;31;20117;-65
2023/01/25 01:11:17;;;;;;;10.40;6.18;;;18.00;66.40;;;;;;4507164;31;20601;-65
2023/01/25 01:13:43;;;;;;;10.85;7.25;;;18.00;66.40;;;;;;4508062;31;20148;-65
2023/01/25 01:16:11;;;;;;;11.18;6.72;;;18.00;66.40;;;;;;4492072;31;20117;-65
2023/01/25 01:18:38;;;;;;;10.50;6.60;;;18.00;66.40;;;;;;4494392;31;20237;-65
2023/01/25 01:21:05;;;;;;;10.65;6.70;;;18.00;66.40;;;;;;4505876;31;20263;-65
2023/01/25 01:23:31;;;;;;;13.60;6.57;;;18.00;66.40;;;;;;4494783;31;20144;-65
2023/01/25 01:26:00;;;;;;;12.15;6.55;;;18.00;66.50;;;;;;4506115;31;20144;-65
2023/01/25 01:28:31;;;;;;;12.02;6.70;;;18.00;66.40;;;;;;4493716;31;20135;-65
2023/01/25 01:31:01;;;;;;;11.57;6.78;;;17.90;66.40;;;;;;4491999;31;20132;-65
2023/01/25 01:33:27;;;;;;;11.23;6.30;;;17.90;66.40;;;;;;4494122;31;20132;-65
2023/01/25 01:35:53;;;;;;;10.02;6.25;;;17.90;66.40;;;;;;4491902;31;20699;-65
2023/01/25 01:38:19;;;;;;;9.90;6.13;;;17.90;66.40;;;;;;4507071;31;20124;-64
2023/01/25 01:40:45;;;;;;;12.95;7.03;;;17.90;66.40;;;;;;4507626;31;20135;-65
2023/01/25 01:43:19;;;;;;;11.60;6.55;;;17.90;66.40;;;;;;4505634;31;20164;-65
2023/01/25 01:45:50;;;;;;;10.02;6.05;;;17.80;66.40;;;;;;4495015;31;20129;-64
2023/01/25 01:48:37;;;;;;;10.38;6.28;;;17.80;66.40;;;;;;4484335;32;20572;-64
2023/01/25 01:51:03;;;;;;;10.65;6.50;;;17.80;66.40;;;;;;4483870;32;20144;-65
2023/01/25 01:53:31;;;;;;;10.38;6.28;;;17.80;66.40;;;;;;4483090;32;20180;-65
2023/01/25 01:56:00;;;;;;;9.70;6.03;;;17.80;66.40;;;;;;4484787;32;20168;-64
2023/01/25 01:58:28;;;;;;;10.23;5.93;;;17.80;66.50;;;;;;4483207;31;20129;-65
2023/01/25 02:00:54;;;;;;;10.38;6.18;;;17.80;66.50;;;;;;4483338;32;20258;-64
2023/01/25 02:03:21;;;;;;;10.20;5.88;;;17.80;66.40;;;;;;4483154;31;20137;-64
2023/01/25 02:06:06;;;;;;;12.95;6.45;;;17.80;66.50;;;;;;4483189;31;20596;-64
2023/01/25 02:08:35;;;;;;;12.50;6.13;;;17.80;66.40;;;;;;4484544;32;20147;-66
2023/01/25 02:11:03;;;;;;;10.32;6.35;;;17.70;66.40;;;;;;4483118;31;20139;-68
2023/01/25 02:13:30;;;;;;;10.27;6.10;;;17.80;66.40;;;;;;4484416;32;20129;-67
2023/01/25 02:15:57;;;;;;;9.48;6.00;;;17.70;67.30;;;;;;4483460;31;20131;-68
2023/01/25 02:18:24;;;;;;;9.77;6.35;;;17.70;66.40;;;;;;4483692;32;20191;-68
2023/01/25 02:20:52;;;;;;;10.50;6.13;;;17.70;66.40;;;;;;4470157;32;20099;-67
2023/01/25 02:23:28;;;;;;;11.60;5.75;;;17.70;66.40;;;;;;4481881;32;20271;-67
2023/01/25 02:25:57;;;;;;;10.45;5.65;;;17.70;66.40;;;;;;4484361;31;20141;-67
2023/01/25 02:28:57;;;;;;;9.55;5.70;;;17.70;66.40;;;;;;4481887;32;20121;-67
2023/01/25 02:31:22;;;;;;;8.85;5.43;;;17.70;66.30;;;;;;4483296;32;20172;-67
2023/01/25 02:33:48;;;;;;;9.38;5.32;;;17.60;66.30;;;;;;4498558;31;20267;-67
2023/01/25 02:36:23;;;;;;;9.40;5.65;;;17.60;66.30;;;;;;4468447;32;20125;-67
2023/01/25 02:39:10;;;;;;;9.63;6.03;;;17.60;66.30;;;;;;4484346;32;20270;-67
2023/01/25 02:41:40;;;;;;;9.57;5.00;;;17.60;66.30;;;;;;4475678;31;20139;-67
2023/01/25 02:44:15;;;;;;;12.18;6.03;;;17.60;66.40;;;;;;4484185;31;20192;-67
2023/01/25 02:46:42;;;;;;;10.60;5.93;;;17.60;66.30;;;;;;4482777;32;20133;-67
2023/01/25 02:49:09;;;;;;;9.88;5.47;;;17.60;66.40;;;;;;4482547;32;20129;-67
2023/01/25 02:51:37;;;;;;;9.75;5.45;;;17.60;67.20;;;;;;4483867;31;20188;-66
2023/01/25 02:54:05;;;;;;;9.32;5.30;;;17.60;66.40;;;;;;4482514;32;20125;-66
2023/01/25 02:56:31;;;;;;;9.88;5.80;;;17.60;66.40;;;;;;4469459;31;20135;-66
2023/01/25 02:58:56;;;;;;;9.15;5.30;;;17.50;66.40;;;;;;4483255;31;20124;-67
2023/01/25 03:01:22;;;;;;;8.05;5.55;;;17.50;66.40;;;;;;4482846;32;20159;-67
2023/01/25 03:03:49;;;;;;;8.57;5.65;;;17.50;66.40;;;;;;4483596;32;20133;-67
2023/01/25 03:06:15;;;;;;;7.65;5.10;;;17.50;66.40;;;;;;4481018;31;20624;-66
2023/01/25 03:08:41;;;;;;;7.72;5.60;;;17.50;66.40;;;;;;4482554;32;20185;-66
2023/01/25 03:11:07;;;;;;;9.00;4.97;;;17.50;66.50;;;;;;4475244;31;20155;-67
2023/01/25 03:13:34;;;;;;;8.00;5.30;;;17.50;66.40;;;;;;4482299;32;20147;-67
2023/01/25 03:16:03;;;;;;;7.35;4.53;;;17.50;66.50;;;;;;4482668;31;20473;-67
2023/01/25 03:18:29;;;;;;;9.52;5.75;;;17.50;66.50;;;;;;4482249;31;20194;-67
2023/01/25 03:20:55;;;;;;;9.25;5.45;;;17.50;66.50;;;;;;4479277;31;20139;-67
2023/01/25 03:23:21;;;;;;;8.43;5.40;;;17.50;66.50;;;;;;4483382;31;20136;-67
2023/01/25 03:25:46;;;;;;;9.05;5.25;;;17.50;66.50;;;;;;4476884;32;20109;-66
2023/01/25 03:28:12;;;;;;;8.98;5.07;;;17.50;66.50;;;;;;4491822;31;20135;-67
2023/01/25 03:30:38;;;;;;;8.93;5.28;;;17.40;66.40;;;;;;4483365;31;20149;-65
2023/01/25 03:33:04;;;;;;;7.28;4.75;;;17.40;66.50;;;;;;4482227;31;20199;-67
2023/01/25 03:35:30;;;;;;;8.35;5.40;;;17.40;66.50;;;;;;4486668;31;20278;-67
2023/01/25 03:37:56;;;;;;;7.50;4.53;;;17.40;66.50;;;;;;4484433;31;20092;-67
2023/01/25 03:40:21;;;;;;;9.93;5.38;;;17.40;66.60;;;;;;4479624;31;20350;-67
2023/01/25 03:42:47;;;;;;;6.78;4.70;;;17.40;66.60;;;;;;4495131;31;20117;-67
2023/01/25 03:45:13;;;;;;;8.30;5.10;;;17.40;66.60;;;;;;4480402;31;20129;-67
2023/01/25 03:47:40;;;;;;;8.43;4.90;;;17.30;66.50;;;;;;4495121;31;20136;-67
2023/01/25 03:50:06;;;;;;;7.57;5.10;;;17.30;66.50;;;;;;4481892;31;20299;-67
2023/01/25 03:53:28;;;;;;;7.80;5.13;;;17.30;66.50;;;;;;4482587;31;20136;-67
2023/01/25 03:55:56;;;;;;;7.15;4.45;;;17.30;66.50;;;;;;4478156;31;20137;-67
2023/01/25 03:58:22;;;;;;;7.43;4.55;;;17.30;66.60;;;;;;4481162;31;20160;-67
2023/01/25 04:00:48;;;;;;;7.40;4.85;;;17.30;66.60;;;;;;4494563;31;20536;-67
2023/01/25 04:03:14;;;;;;;5.80;4.40;;;17.30;66.60;;;;;;4494407;31;20164;-67
2023/01/25 04:05:41;;;;;;;8.70;4.40;;;17.30;66.60;;;;;;4481696;31;20156;-67
2023/01/25 04:08:07;;;;;;;6.50;4.72;;;17.30;66.60;;;;;;4482849;31;20558;-66
2023/01/25 04:10:33;;;;;;;7.07;4.60;;;17.30;66.60;;;;;;4493266;31;20135;-67
2023/01/25 04:12:59;;;;;;;6.38;4.22;;;17.30;66.60;;;;;;4486741;31;20124;-66
2023/01/25 04:15:24;;;;;;;7.32;4.80;;;17.30;66.50;;;;;;4488211;31;20117;-67
2023/01/25 04:17:50;;;;;;;7.40;4.40;;;17.30;66.40;;;;;;4482412;31;20286;-67
2023/01/25 04:20:16;;;;;;;7.75;4.40;;;17.30;66.40;;;;;;4475356;31;20130;-67
2023/01/25 04:22:42;;;;;;;6.45;4.10;;;17.30;66.30;;;;;;4482186;31;20163;-67
2023/01/25 04:25:08;;;;;;;6.45;4.70;;;17.30;66.20;;;;;;4494653;31;20617;-67
2023/01/25 04:27:34;;;;;;;6.55;4.25;;;17.30;66.10;;;;;;4481203;31;20144;-67
2023/01/25 04:29:59;;;;;;;5.47;4.35;;;17.40;66.10;;;;;;4483072;31;20145;-66
2023/01/25 04:32:25;;;;;;;6.10;4.03;;;17.30;66.00;;;;;;4473696;32;20297;-66
2023/01/25 04:34:51;;;;;;;7.43;4.35;;;17.30;66.00;;;;;;4482359;31;20244;-67
2023/01/25 04:37:17;;;;;;;6.55;3.95;;;17.30;66.00;;;;;;4481306;31;20148;-67
2023/01/25 04:39:43;;;;;;;5.35;3.88;;;17.30;65.90;;;;;;4493839;31;20172;-67
2023/01/25 04:42:08;;;;;;;6.38;4.30;;;17.40;65.90;;;;;;4468317;32;20207;-67
2023/01/25 04:44:34;;;;;;;6.15;4.18;;;17.40;65.80;;;;;;4475144;32;20120;-67
2023/01/25 04:47:00;;;;;;;5.38;3.97;;;17.40;65.70;;;;;;4482116;31;20164;-67
2023/01/25 04:49:26;;;;;;;6.05;3.97;;;17.40;65.70;;;;;;4492820;31;20176;-67
2023/01/25 04:51:52;;;;;;;6.70;4.20;;;17.40;65.60;;;;;;4481285;31;20266;-67
2023/01/25 04:54:17;;;;;;;7.38;4.20;;;17.40;65.60;;;;;;4481397;31;20144;-67
2023/01/25 04:56:43;;;;;;;6.15;4.00;;;17.40;65.50;;;;;;4481866;31;20202;-67
2023/01/25 04:59:09;;;;;;;6.28;4.15;;;17.50;65.50;;;;;;4473998;32;20410;-67
2023/01/25 05:01:35;;;;;;;8.93;4.53;;;17.50;65.50;;;;;;4471847;32;20190;-66
2023/01/25 05:04:01;;;;;;;7.07;4.60;;;17.50;65.40;;;;;;4496722;32;20125;-66
2023/01/25 05:06:28;;;;;;;6.60;4.13;;;17.50;65.40;;;;;;4469260;32;20124;-67
2023/01/25 05:08:53;;;;;;;6.53;4.10;;;17.50;65.40;;;;;;4482748;31;20127;-66
2023/01/25 05:11:19;;;;;;;6.22;4.20;;;17.50;65.30;;;;;;4466987;32;20117;-67
2023/01/25 05:13:45;;;;;;;4.90;3.65;;;17.50;65.30;;;;;;4480718;32;20141;-67
2023/01/25 05:16:11;;;;;;;5.63;3.45;;;17.50;65.30;;;;;;4467794;32;20097;-67
2023/01/25 05:18:37;;;;;;;5.13;3.50;;;17.50;65.30;;;;;;4480877;31;20262;-67
2023/01/25 05:21:02;;;;;;;4.40;3.47;;;17.50;65.30;;;;;;4494043;31;20117;-66
2023/01/25 05:23:28;;;;;;;4.85;3.58;;;17.50;65.20;;;;;;4480765;31;20148;-67
2023/01/25 05:28:38;;;;;;;5.53;3.67;;;17.50;65.30;;;;;;4498058;31;20139;-67
2023/01/25 05:31:04;;;;;;;5.05;3.67;;;17.50;65.20;;;;;;4485675;31;20125;-67
2023/01/25 05:33:30;;;;;;;4.45;3.45;;;17.50;65.20;;;;;;4485982;32;20133;-67
2023/01/25 05:35:57;;;;;;;5.05;3.63;;;17.50;65.20;;;;;;4472206;32;20132;-66
2023/01/25 05:38:23;;;;;;;5.55;3.60;;;17.50;65.20;;;;;;4481984;31;20132;-67
2023/01/25 05:40:49;;;;;;;4.43;3.50;;;17.50;65.20;;;;;;4492909;31;20218;-66
2023/01/25 05:43:15;;;;;;;5.35;3.70;;;17.50;65.20;;;;;;4483779;31;20806;-66
2023/01/25 05:45:41;;;;;;;5.57;3.90;;;17.50;65.20;;;;;;4489402;31;20116;-66
2023/01/25 05:48:07;;;;;;;4.57;3.63;;;17.50;66.00;;;;;;4487347;31;20143;-66
2023/01/25 05:50:33;;;;;;;5.05;3.78;;;17.50;65.20;;;;;;4484876;31;20070;-67
2023/01/25 05:52:58;;;;;;;4.45;3.60;;;17.50;65.10;;;;;;4495434;31;20109;-67
2023/01/25 05:55:24;;;;;;;5.10;3.42;;;17.50;65.10;;;;;;4484872;31;20256;-66
2023/01/25 05:57:53;;;;;;;6.38;3.97;;;17.50;65.10;;;;;;4483151;31;20183;-67
2023/01/25 06:00:19;;;;;;;4.80;3.65;;;17.50;65.00;;;;;;4484644;31;20198;-66
2023/01/25 06:02:45;;;;;;;4.65;3.72;;;17.50;65.00;;;;;;4483723;31;20129;-67
2023/01/25 06:05:11;;;;;;;5.22;3.58;;;17.50;65.00;;;;;;4496197;31;20133;-67
2023/01/25 06:07:38;;;;;;;3.78;3.25;;;17.40;64.90;;;;;;4484389;31;20103;-67
2023/01/25 06:10:04;;;;;;;4.28;3.65;;;17.50;65.00;;;;;;4483230;31;20124;-67
2023/01/25 06:12:31;;;;;;;4.32;3.75;;;17.50;65.00;;;;;;4496453;31;20345;-67
2023/01/25 06:14:57;;;;;;;4.43;3.25;;;17.50;65.00;;;;;;4482973;31;20639;-67
2023/01/25 06:17:23;;;;;;;6.38;3.72;;;17.50;65.00;;;;;;4484523;31;20247;-66
2023/01/25 06:19:49;;;;;;;4.40;3.17;;;17.50;65.00;;;;;;4482985;31;20124;-66
2023/01/25 06:22:15;;;;;;;5.43;3.50;;;17.50;64.90;;;;;;4492432;31;20121;-67
2023/01/25 06:24:41;;;;;;;4.55;3.47;;;17.50;64.90;;;;;;4471778;32;20133;-67
2023/01/25 06:27:07;;;;;;;4.63;3.38;;;17.50;64.90;;;;;;4489768;31;20453;-67
2023/01/25 06:29:33;;;;;;;4.45;3.28;;;17.50;64.90;;;;;;4473426;31;20148;-66
2023/01/25 06:31:59;;;;;;;3.97;3.17;;;17.50;64.80;;;;;;4468685;32;20194;-67
2023/01/25 06:34:24;;;;;;;3.95;3.00;;;17.50;64.80;;;;;;4478476;32;20168;-66
2023/01/25 06:36:50;;;;;;;4.35;3.13;;;17.50;64.80;;;;;;4468445;31;20243;-66
2023/01/25 06:39:16;;;;;;;4.43;3.17;;;17.50;64.80;;;;;;4496024;31;20186;-66
2023/01/25 06:41:42;;;;;;;4.18;3.10;;;17.50;64.80;;;;;;4469272;32;20121;-66
2023/01/25 06:44:08;;;;;;;3.88;3.30;;;17.40;64.80;;;;;;4483184;31;20125;-67
2023/01/25 06:46:33;;;;;;;4.35;3.30;;;17.40;64.80;;;;;;4495720;31;20156;-66
2023/01/25 06:48:59;;;;;;;4.72;3.65;;;17.40;64.80;;;;;;4494546;31;20135;-67
2023/01/25 06:51:25;;;;;;;3.53;3.22;;;17.40;64.80;;;;;;4469911;32;20149;-66
2023/01/25 06:53:51;;;;;;;4.38;3.38;;;17.40;64.80;;;;;;4480649;31;20117;-66
2023/01/25 06:56:20;;;;;;;6.38;3.67;;;17.40;64.80;;;;;;4479268;31;20261;-66
2023/01/25 06:58:46;;;;;;;4.75;3.53;;;17.40;64.80;;;;;;4484211;31;20136;-66
2023/01/25 07:01:18;;;;;;;3.85;3.17;;;17.40;64.80;;;;;;4482962;31;20125;-67
2023/01/25 07:03:47;;;;;;;4.28;3.25;;;17.40;64.80;;;;;;4483635;31;20195;-66
2023/01/25 07:06:13;;;;;;;3.55;3.03;;;17.30;64.80;;;;;;4494146;31;20135;-67
2023/01/25 07:08:40;;;;;;;3.78;2.97;;;17.30;64.80;;;;;;4482495;31;20238;-66
2023/01/25 07:11:11;;;;;;;4.50;3.35;;;17.40;64.80;;;;;;4482302;31;20290;-66
2023/01/25 07:13:39;;;;;;;4.13;3.40;;;17.30;64.80;;;;;;4493314;31;20298;-66
2023/01/25 07:16:07;;;;;;;4.53;3.53;;;17.30;64.80;;;;;;4482351;31;20125;-67
2023/01/25 07:18:36;;;;;;;4.32;3.10;;;17.40;64.90;;;;;;4494390;31;20137;-67
2023/01/25 07:21:08;;;;;;;4.03;3.15;;;17.30;64.80;;;;;;4480511;31;20270;-67
2023/01/25 07:23:36;;;;;;;4.20;3.25;;;17.30;64.90;;;;;;4481946;31;20271;-67
2023/01/25 07:26:03;;;;;;;3.78;3.10;;;17.30;64.90;;;;;;4480424;31;20653;-66
2023/01/25 07:28:31;;;;;;;4.25;2.97;;;17.30;65.00;;;;;;4473938;31;20257;-67
2023/01/25 07:31:05;;;;;;;3.55;2.95;;;17.30;64.90;;;;;;4488131;31;20172;-66
2023/01/25 07:33:31;;;;;;;3.97;3.05;;;17.30;64.90;;;;;;4483341;31;20077;-67
2023/01/25 07:36:06;;;;;;;3.72;3.28;;;17.20;64.90;;;;;;4493844;31;20105;-66
2023/01/25 07:38:33;;;;;;;4.07;3.20;;;17.20;64.90;;;;;;4483352;31;20116;-66
2023/01/25 07:40:58;;;;;;;4.10;3.05;;;17.20;64.90;;;;;;4477153;31;20703;-67
2023/01/25 07:43:25;;;;;;;3.78;3.25;;;17.20;64.90;;;;;;4484498;31;20132;-67
2023/01/25 07:45:51;;;;;;;3.75;3.20;;;17.20;64.90;;;;;;4489945;31;20509;-66
2023/01/25 07:48:19;;;;;;;3.42;2.65;;;17.20;64.90;;;;;;4494207;31;20576;-67
2023/01/25 07:50:48;;;;;;;4.50;3.28;;;17.20;64.90;;;;;;4475494;31;20431;-66
2023/01/25 07:53:15;;;;;;;3.53;3.00;;;17.20;64.90;;;;;;4485458;31;20141;-66
2023/01/25 07:55:41;;;;;;;5.15;2.92;;;17.20;65.00;;;;;;4495271;31;20143;-66
2023/01/25 07:58:10;;;;;;;3.47;3.17;;;17.20;65.10;;;;;;4480369;31;20482;-67
2023/01/25 08:00:35;;;;;;;4.13;3.03;;;17.10;65.30;;;;;;4482734;31;20180;-66
2023/01/25 08:03:01;;;;;;;5.15;3.40;;;17.20;65.50;;;;;;4476876;31;20116;-67
2023/01/25 08:05:27;;;;;;;4.00;3.00;;;17.20;65.50;;;;;;4507406;31;20206;-67
2023/01/25 08:07:53;;;;;;;3.65;3.03;;;17.20;65.40;;;;;;4512142;31;20158;-67
2023/01/25 08:10:20;;;;;;;3.10;2.75;;;17.30;65.10;;;;;;4509770;31;20140;-67
2023/01/25 08:12:45;;;;;;;3.30;2.67;;;17.50;64.80;;;;;;4506187;31;20135;-66
2023/01/25 08:15:13;;;;;;;4.00;2.65;;;17.60;64.40;;;;;;4480288;32;20164;-67
2023/01/25 08:17:39;;;;;;;3.05;2.67;;;17.80;64.10;;;;;;4482650;31;20125;-66
2023/01/25 08:20:06;;;;;;;3.00;2.70;;;17.90;63.60;;;;;;4467709;32;20148;-67
2023/01/25 08:22:32;;;;;;;3.25;2.50;;;18.10;63.30;;;;;;4481939;31;20597;-67
2023/01/25 08:24:59;;;;;;;2.95;2.42;;;18.20;62.80;;;;;;4457631;32;20215;-67
2023/01/25 08:27:27;;;;;;;5.03;2.42;;;18.40;62.50;;;;;;4481147;31;20186;-67
2023/01/25 08:29:53;;;;;;;3.35;2.60;;;18.50;62.10;;;;;;4468479;32;20125;-67
2023/01/25 08:32:19;;;;;;;3.08;2.40;;;18.70;61.70;;;;;;4481188;31;20129;-67
2023/01/25 08:34:46;;;;;;;2.58;2.30;;;18.80;61.30;;;;;;4482379;31;20113;-67
2023/01/25 08:37:12;;;;;;;3.50;2.50;;;19.00;61.00;;;;;;4467447;32;20179;-67
2023/01/25 08:39:37;;;;;;;2.92;2.45;;;19.10;60.60;;;;;;4480448;31;20263;-67
2023/01/25 08:42:04;;;;;;;2.33;2.05;;;19.20;60.40;;;;;;4473831;31;20100;-66
2023/01/25 08:44:31;;;;;;;3.10;2.40;;;19.30;60.20;;;;;;4486507;31;20565;-67
2023/01/25 08:46:57;;;;;;;3.03;2.20;;;19.30;60.00;;;;;;4482127;31;20159;-66
2023/01/25 08:49:22;;;;;;;3.33;2.45;;;19.40;59.90;;;;;;4478520;32;20125;-67
2023/01/25 08:51:49;;;;;;;2.58;2.20;;;19.40;59.90;;;;;;4492011;31;20135;-66
2023/01/25 08:54:15;;;;;;;3.47;2.33;;;19.40;59.90;;;;;;4483009;31;20128;-67
2023/01/25 08:56:41;;;;;;;4.53;2.10;;;19.40;59.70;;;;;;4495355;31;20135;-67
2023/01/25 08:59:10;;;;;;;2.78;2.08;;;19.40;59.70;;;;;;4482008;32;20092;-66
2023/01/25 09:01:36;;;;;;;3.70;2.25;;;19.50;59.70;;;;;;4482264;32;20319;-67
2023/01/25 09:04:02;;;;;;;2.83;2.40;;;19.50;59.50;;;;;;4491102;32;20238;-66
2023/01/25 09:06:28;;;;;;;3.40;2.05;;;19.50;59.50;;;;;;4481310;32;20278;-66
2023/01/25 09:08:54;;;;;;;3.13;2.45;;;19.50;59.50;;;;;;4485871;32;20127;-67
2023/01/25 09:11:22;;;;;;;2.70;2.08;;;19.60;59.50;;;;;;4475162;32;20588;-67
2023/01/25 09:13:48;;;;;;;2.55;2.17;;;19.50;59.30;;;;;;4490598;32;20133;-67
2023/01/25 09:16:26;;;;;;;2.75;2.22;;;19.60;59.30;;;;;;4481761;31;20230;-66
2023/01/25 09:18:53;;;;;;;3.22;2.20;;;19.60;59.30;;;;;;4489933;31;20128;-67
2023/01/25 09:21:19;;;;;;;2.45;2.15;;;19.60;59.30;;;;;;4492250;31;20175;-66
2023/01/25 09:23:50;;;;;;;2.42;2.10;;;19.60;59.30;;;;;;4472832;31;20600;-67
2023/01/25 09:26:16;;;;;;;2.92;1.95;;;19.60;59.20;;;;;;4498247;31;20149;-67
2023/01/25 09:28:46;;;;;;;3.80;2.03;;;19.60;59.10;;;;;;4475835;31;20148;-67
2023/01/25 09:31:12;;;;;;;4.55;2.25;;;19.60;59.10;;;;;;4499366;31;20196;-67
2023/01/25 09:33:39;;;;;;;2.78;2.10;;;19.60;59.10;;;;;;4500352;31;20242;-67
2023/01/25 09:36:06;;;;;;;2.63;2.00;;;19.70;59.10;;;;;;4497866;31;20924;-67
2023/01/25 09:38:32;;;;;;;2.33;2.13;;;19.60;59.00;;;;;;4500162;31;20132;-66
2023/01/25 09:41:04;;;;;;;3.03;2.47;;;19.70;59.00;;;;;;4498918;31;20274;-66
2023/01/25 09:43:49;;;;;;;2.67;2.47;;;19.70;59.00;;;;;;4503393;31;20132;-66
2023/01/25 09:46:32;;;;;;;2.45;2.15;;;19.60;59.00;;;;;;4505436;31;20155;-66
2023/01/25 09:49:32;;;;;;;2.53;2.22;;;19.60;58.90;;;;;;4487654;31;20140;-66
2023/01/25 09:51:58;;;;;;;2.90;2.60;;;19.60;58.90;;;;;;4500881;31;20139;-67
2023/01/25 09:54:27;;;;;;;2.97;2.25;;;19.60;58.90;;;;;;4505827;31;20132;-67
2023/01/25 09:56:53;;;;;;;2.88;2.10;;;19.50;58.90;;;;;;4510769;31;20148;-67
2023/01/25 09:59:25;;;;;;;4.43;2.35;;;19.50;58.90;;;;;;4514167;31;20116;-67
2023/01/25 10:02:03;;;;;;;5.07;2.30;;;19.50;58.90;;;;;;4511185;31;20148;-67
2023/01/25 10:04:36;;;;;;;2.75;2.45;;;19.50;59.00;;;;;;4513169;31;20281;-66
2023/01/25 10:07:29;;;;;;;2.63;2.33;;;19.50;59.00;;;;;;4510190;31;20144;-66
2023/01/25 10:10:15;;;;;;;3.22;2.17;;;19.50;59.10;;;;;;4500154;31;20124;-68
2023/01/25 10:12:42;;;;;;;4.40;2.22;;;19.50;59.10;;;;;;4507398;31;20125;-67
2023/01/25 10:15:22;;;;;;;4.60;2.15;;;19.60;59.20;;;;;;4487496;31;20139;-66
2023/01/25 10:18:29;;;;;;;3.92;1.90;;;19.60;59.30;;;;;;4486184;31;20506;-66
2023/01/25 10:20:56;;;;;;;4.75;2.00;;;19.70;59.40;;;;;;4484235;31;20275;-67
2023/01/25 10:23:41;;;;;;;5.95;2.03;;;19.70;59.40;;;;;;4482675;31;20131;-68
2023/01/25 10:26:28;;;;;;;3.65;2.05;;;19.70;59.40;;;;;;4496222;31;20175;-67
2023/01/25 10:29:21;;;;;;;3.70;2.00;;;19.70;59.40;;;;;;4468585;31;20096;-67
2023/01/25 10:31:52;;;;;;;4.65;2.50;;;19.70;59.50;;;;;;4480592;31;20137;-72
2023/01/25 10:34:20;;;;;;;3.70;2.08;;;19.70;59.50;;;;;;4484154;31;20141;-67
2023/01/25 10:37:01;;;;;;;4.07;2.20;;;19.70;59.50;;;;;;4482336;31;20125;-68
2023/01/25 10:39:28;;;;;;;2.42;2.00;;;19.70;59.70;;;;;;4483529;31;20117;-68
2023/01/25 10:42:00;;;;;;;6.28;2.38;;;19.60;59.70;;;;;;4485151;31;20105;-68
2023/01/25 10:44:27;;;;;;;4.40;2.30;;;19.60;59.90;;;;;;4496951;31;20279;-68
2023/01/25 10:46:54;;;;;;;3.00;2.20;;;19.60;59.90;;;;;;4499041;31;20116;-67
2023/01/25 10:49:37;;;;;;;3.53;2.20;;;19.60;60.00;;;;;;4497726;31;20274;-68
2023/01/25 10:52:14;;;;;;;2.40;2.17;;;19.60;60.00;;;;;;4498514;31;20266;-67
2023/01/25 10:54:40;;;;;;;5.47;1.77;;;19.60;60.10;;;;;;4503194;31;20080;-68
2023/01/25 10:57:08;;;;;;;4.57;2.10;;;19.60;60.10;;;;;;4481057;31;20176;-69
2023/01/25 10:59:35;;;;;;;4.38;1.90;;;19.60;60.20;;;;;;4498829;31;20149;-68
2023/01/25 11:02:34;;;;;;;2.25;1.88;;;19.60;60.20;;;;;;4481428;31;20148;-68
2023/01/25 11:05:35;;;;;;;2.33;1.88;;;19.60;60.30;;;;;;4483541;31;20128;-69
2023/01/25 11:08:24;;;;;;;3.45;1.85;;;19.60;60.30;;;;;;4489931;31;20194;-69
2023/01/25 11:10:51;;;;;;;2.58;2.00;;;19.70;60.40;;;;;;4478545;31;20132;-68
2023/01/25 11:13:31;;;;;;;2.72;1.90;;;19.70;60.40;;;;;;4490544;31;20136;-69
2023/01/25 11:16:05;;;;;;;2.22;1.98;;;19.70;60.40;;;;;;4486857;31;20135;-68
2023/01/25 11:18:34;;;;;;;2.65;2.00;;;19.60;60.30;;;;;;4488546;31;20151;-69
2023/01/25 11:21:13;;;;;;;4.00;1.63;;;19.70;60.40;;;;;;4496344;31;20125;-68
2023/01/25 11:23:39;;;;;;;3.22;1.85;;;19.70;60.40;;;;;;4480767;31;20149;-68
2023/01/25 11:26:13;;;;;;;4.07;1.92;;;19.70;60.50;;;;;;4484360;31;20125;-69
2023/01/25 11:28:39;;;;;;;;;;;19.70;60.50;;;;;;4490485;31;20184;-69
2023/01/25 11:31:12;;;;;;;2.72;1.70;;;19.70;60.50;;;;;;4481596;31;20493;-68
2023/01/25 11:33:40;;;;;;;1.80;1.70;;;19.70;60.50;;;;;;4473315;31;20129;-67
2023/01/25 11:36:18;;;;;;;2.42;1.60;;;19.70;60.50;;;;;;4471233;31;20159;-68
2023/01/25 11:39:06;;;;;;;2.67;2.10;;;19.70;60.50;;;;;;4492761;31;20136;-67
2023/01/25 11:42:01;;;;;;;2.70;2.05;;;19.70;60.50;;;;;;4485443;31;20570;-67
2023/01/25 11:44:37;;;;;;;2.30;1.80;;;19.70;60.50;;;;;;4481025;31;20128;-68
2023/01/25 11:47:29;;;;;;;2.10;1.90;;;19.70;60.50;;;;;;4493290;31;20251;-68
2023/01/25 11:50:18;;;;;;;2.42;1.92;;;19.70;60.50;;;;;;4481891;31;20246;-68
2023/01/25 11:53:02;;;;;;;2.55;1.80;;;19.70;60.50;;;;;;4487911;31;20254;-67
2023/01/25 11:55:34;;;;;;;2.70;1.70;;;19.80;60.50;;;;;;4486351;31;20148;-68
2023/01/25 11:58:25;;;;;;;2.58;1.88;;;19.70;60.60;;;;;;4496746;31;20148;-67
2023/01/25 12:01:16;;;;;;;2.38;1.80;;;19.70;60.50;;;;;;4498701;31;20116;-67
2023/01/25 12:04:14;;;;;;;5.40;2.10;;;19.70;60.60;;;;;;4499265;31;20116;-69
2023/01/25 12:06:58;;;;;;;2.78;2.03;;;19.70;60.60;;;;;;4483385;31;20128;-66
2023/01/25 12:10:10;;;;;;;1.90;1.60;;;19.70;60.70;;;;;;4498571;31;20143;-68
2023/01/25 12:13:13;;;;;;;6.25;2.20;;;19.80;60.80;;;;;;4448076;32;20126;-69
2023/01/25 12:16:15;;;;;;;6.90;1.92;;;19.70;60.70;;;;;;4481933;31;20159;-68
2023/01/25 12:19:04;;;;;;;3.47;1.60;;;19.70;60.80;;;;;;4501238;31;20224;-67
2023/01/25 12:21:47;;;;;;;2.08;1.88;;;19.70;61.70;;;;;;4508834;31;20128;-68
2023/01/25 12:24:38;;;;;;;2.40;1.80;;;19.80;60.70;;;;;;4510631;31;20143;-67
2023/01/25 12:27:45;;;;;;;3.85;1.80;;;19.80;60.70;;;;;;4510382;31;20135;-68
2023/01/25 12:30:20;;;;;;;3.97;1.80;;;19.80;60.60;;;;;;4493809;31;20136;-68
2023/01/25 12:32:58;;;;;;;5.70;1.80;;;19.80;60.60;;;;;;4495855;31;20124;-69
2023/01/25 12:35:40;;;;;;;2.42;1.90;;;19.80;60.70;;;;;;4509493;31;20567;-69
2023/01/25 12:38:24;;;;;;;2.33;2.00;;;19.80;60.70;;;;;;4509494;31;20600;-71
2023/01/25 12:40:58;;;;;;;5.00;1.95;;;19.80;60.70;;;;;;4509997;31;20127;-68
2023/01/25 12:43:40;;;;;;;3.30;2.05;;;19.80;60.60;;;;;;4508278;31;20190;-67
2023/01/25 12:46:14;;;;;;;3.67;1.83;;;19.80;60.60;;;;;;4511053;31;20127;-67
2023/01/25 12:48:46;;;;;;;7.22;2.13;;;19.80;60.50;;;;;;4507119;31;20140;-68
2023/01/25 12:51:14;;;;;;;5.65;2.20;;;19.80;60.50;;;;;;4510909;31;20123;-67
2023/01/25 12:53:48;;;;;;;3.67;2.13;;;19.90;60.50;;;;;;4492762;31;20297;-67
2023/01/25 12:56:42;;;;;;;4.20;2.00;;;19.90;61.30;;;;;;4510950;31;20154;-67
2023/01/25 12:59:22;;;;;;;3.38;1.92;;;19.90;60.50;;;;;;4493189;31;20081;-68
2023/01/25 13:02:11;;;;;;;3.42;2.00;;;19.90;60.50;;;;;;4488321;32;20132;-68
2023/01/25 13:05:00;;;;;;;4.25;2.30;;;19.90;60.50;;;;;;4489325;32;20139;-69
2023/01/25 13:07:38;;;;;;;5.45;2.20;;;20.00;60.50;;;;;;4485713;32;20145;-69